createdAt,value
2024-03-05T00:01:15.106Z,14.30
2024-03-05T00:03:42.839Z,10.52
2024-03-05T00:06:18.014Z,9.77
2024-03-05T00:08:44.810Z,11.18
2024-03-05T00:11:11.873Z,12.02
2024-03-05T00:13:45.093Z,8.82
2024-03-05T00:16:11.839Z,12.15
2024-03-05T00:18:45.016Z,10.63
2024-03-05T00:21:11.775Z,10.48
2024-03-05T00:23:45.050Z,10.68
2024-03-05T00:26:19.592Z,9.18
2024-03-05T00:29:00.107Z,10.18
2024-03-05T00:31:33.053Z,9.65
2024-03-05T00:33:59.820Z,7.63
2024-03-05T00:36:26.645Z,10.13
2024-03-05T00:39:00.059Z,8.90
2024-03-05T00:41:26.831Z,8.57
2024-03-05T00:44:07.058Z,9.82
2024-03-05T00:46:33.923Z,10.20
2024-03-05T00:49:00.723Z,10.50
2024-03-05T00:51:34.125Z,11.75
2024-03-05T00:54:00.953Z,9.10
2024-03-05T00:56:27.724Z,8.45
2024-03-05T00:59:01.141Z,7.72
2024-03-05T01:01:34.255Z,9.57
2024-03-05T01:04:01.130Z,9.65
2024-03-05T01:06:27.918Z,9.52
2024-03-05T01:09:01.161Z,8.85
2024-03-05T01:11:27.931Z,8.13
2024-03-05T01:14:02.172Z,9.15
2024-03-05T01:16:29.006Z,9.52
2024-03-05T01:19:03.131Z,8.35
2024-03-05T01:21:29.914Z,9.32
2024-03-05T01:23:56.648Z,10.10
2024-03-05T01:26:30.165Z,9.50
2024-03-05T01:29:03.141Z,9.23
2024-03-05T01:31:30.934Z,8.98
2024-03-05T01:33:57.695Z,9.90
2024-03-05T01:36:33.144Z,11.27
2024-03-05T01:39:06.238Z,9.75
2024-03-05T01:41:33.026Z,9.60
2024-03-05T01:43:59.802Z,9.57
2024-03-05T01:46:34.361Z,9.38
2024-03-05T01:49:01.449Z,11.23
2024-03-05T01:51:28.227Z,10.02
2024-03-05T01:54:02.173Z,9.98
2024-03-05T01:56:36.180Z,9.35
2024-03-05T01:59:03.593Z,10.02
2024-03-05T02:01:32.211Z,11.20
2024-03-05T02:04:06.227Z,10.50
2024-03-05T02:06:34.446Z,12.60
2024-03-05T02:09:08.206Z,14.45
2024-03-05T02:11:40.712Z,16.35
2024-03-05T02:14:19.286Z,12.82
2024-03-05T02:16:49.373Z,14.23
2024-03-05T02:19:16.962Z,12.25
2024-03-05T02:21:52.369Z,13.23
2024-03-05T02:24:26.238Z,13.13
2024-03-05T02:27:00.248Z,17.17
2024-03-05T02:29:27.892Z,17.45
2024-03-05T02:31:54.865Z,17.55
2024-03-05T02:34:29.297Z,16.25
2024-03-05T02:36:56.148Z,18.05
2024-03-05T02:39:24.252Z,18.58
2024-03-05T02:41:57.324Z,22.75
2024-03-05T02:44:24.323Z,22.90
2024-03-05T02:46:58.329Z,25.73
2024-03-05T02:49:25.477Z,33.25
2024-03-05T02:51:52.911Z,27.02
2024-03-05T02:54:26.258Z,30.33
2024-03-05T02:56:53.045Z,33.00
2024-03-05T02:59:26.350Z,29.30
2024-03-05T03:01:53.131Z,28.45
2024-03-05T03:04:20.097Z,30.48
2024-03-05T03:06:53.359Z,30.73
2024-03-05T03:09:26.300Z,25.25
2024-03-05T03:11:53.112Z,30.95
2024-03-05T03:14:26.348Z,27.45
2024-03-05T03:16:53.599Z,31.92
2024-03-05T03:19:27.330Z,30.83
2024-03-05T03:21:54.090Z,25.20
2024-03-05T03:24:27.600Z,23.98
2024-03-05T03:26:54.978Z,29.60
2024-03-05T03:29:21.944Z,23.77
2024-03-05T03:31:55.506Z,26.30
2024-03-05T03:34:22.449Z,27.27
2024-03-05T03:36:55.353Z,25.10
2024-03-05T03:39:25.743Z,19.23
2024-03-05T03:42:01.369Z,25.20
2024-03-05T03:44:28.556Z,26.67
2024-03-05T03:47:02.470Z,27.25
2024-03-05T03:49:29.806Z,21.45
2024-03-05T03:51:56.581Z,22.23
2024-03-05T03:54:56.694Z,19.98
2024-03-05T03:57:23.495Z,20.83
2024-03-05T03:59:56.569Z,20.90
2024-03-05T04:02:23.622Z,14.77
2024-03-05T04:04:57.607Z,14.68
2024-03-05T04:07:26.983Z,16.50
2024-03-05T04:10:00.576Z,21.55
2024-03-05T04:12:27.741Z,19.70
2024-03-05T04:14:55.323Z,18.50
2024-03-05T04:17:28.688Z,23.67
2024-03-05T04:19:57.228Z,20.13
2024-03-05T04:22:30.636Z,22.02
2024-03-05T04:24:58.264Z,16.58
2024-03-05T04:27:31.700Z,17.05
2024-03-05T04:29:59.150Z,21.60
2024-03-05T04:32:33.748Z,16.73
2024-03-05T04:35:03.829Z,19.92
2024-03-05T04:37:38.647Z,21.45
2024-03-05T04:40:11.424Z,23.83
2024-03-05T04:42:45.648Z,19.83
2024-03-05T04:45:13.062Z,17.58
2024-03-05T04:47:46.842Z,15.70
2024-03-05T04:50:21.756Z,13.82
2024-03-05T04:52:49.000Z,16.23
2024-03-05T04:55:22.680Z,14.05
2024-03-05T04:57:50.175Z,14.30
2024-03-05T05:00:30.665Z,18.90
2024-03-05T05:02:57.464Z,16.20
2024-03-05T05:05:27.909Z,16.15
2024-03-05T05:08:07.691Z,17.73
2024-03-05T05:10:41.831Z,16.98
2024-03-05T05:13:09.186Z,18.52
2024-03-05T05:15:49.669Z,20.13
2024-03-05T05:18:22.728Z,19.27
2024-03-05T05:20:51.125Z,16.90
2024-03-05T05:23:24.688Z,25.48
2024-03-05T05:25:51.497Z,21.10
2024-03-05T05:28:24.720Z,16.80
2024-03-05T05:30:51.894Z,22.30
2024-03-05T05:33:25.826Z,20.90
2024-03-05T05:35:52.759Z,24.05
2024-03-05T05:38:25.713Z,26.83
2024-03-05T05:40:52.567Z,30.23
2024-03-05T05:43:25.768Z,27.38
2024-03-05T05:46:01.725Z,27.67
2024-03-05T05:48:29.921Z,31.83
2024-03-05T05:51:05.755Z,29.17
2024-03-05T05:53:32.558Z,32.30
2024-03-05T05:56:07.821Z,32.22
2024-03-05T05:58:34.791Z,33.83
2024-03-05T06:01:13.848Z,27.45
2024-03-05T06:03:45.852Z,21.67
2024-03-05T06:06:26.751Z,26.77
2024-03-05T06:08:59.799Z,22.73
2024-03-05T06:11:27.084Z,27.10
2024-03-05T06:14:00.802Z,24.30
2024-03-05T06:16:27.617Z,29.90
2024-03-05T06:19:01.772Z,29.02
2024-03-05T06:21:28.932Z,32.95
2024-03-05T06:24:04.865Z,28.08
2024-03-05T06:26:39.769Z,35.60
2024-03-05T06:29:13.824Z,38.00
2024-03-05T06:31:40.861Z,35.97
2024-03-05T06:34:07.724Z,34.92
2024-03-05T06:36:41.008Z,35.97
2024-03-05T06:39:26.800Z,26.58
2024-03-05T06:41:57.781Z,30.00
2024-03-05T06:44:26.798Z,35.05
2024-03-05T06:47:00.918Z,39.83
2024-03-05T06:49:38.555Z,37.65
2024-03-05T06:52:33.823Z,33.70
2024-03-05T06:55:19.433Z,46.85
2024-03-05T06:57:54.890Z,46.45
2024-03-05T07:00:21.637Z,43.70
2024-03-05T07:02:54.845Z,42.03
2024-03-05T07:05:29.846Z,43.50
2024-03-05T07:07:56.678Z,49.15
2024-03-05T07:10:29.928Z,45.15
2024-03-05T07:13:03.914Z,43.85
2024-03-05T07:15:31.199Z,46.25
2024-03-05T07:18:04.872Z,46.75
2024-03-05T07:20:31.713Z,46.40
2024-03-05T07:23:11.938Z,43.78
2024-03-05T07:25:39.642Z,44.13
2024-03-05T07:28:06.641Z,43.67
2024-03-05T07:30:42.938Z,39.33
2024-03-05T07:33:10.673Z,38.13
2024-03-05T07:35:44.489Z,32.45
2024-03-05T07:38:11.266Z,36.75
2024-03-05T07:40:45.003Z,40.28
2024-03-05T07:43:12.125Z,43.08
2024-03-05T07:45:48.755Z,40.60
2024-03-05T07:48:17.365Z,42.13
2024-03-05T07:50:45.022Z,45.75
2024-03-05T07:53:18.911Z,44.65
2024-03-05T07:55:47.275Z,50.33
2024-03-05T07:58:20.927Z,53.42
2024-03-05T08:00:48.743Z,58.35
2024-03-05T08:03:21.978Z,48.90
2024-03-05T08:05:51.891Z,49.78
2024-03-05T08:08:24.943Z,44.97
2024-03-05T08:10:51.794Z,43.78
2024-03-05T08:13:27.013Z,39.05
2024-03-05T08:15:55.393Z,44.42
2024-03-05T08:18:28.943Z,38.80
2024-03-05T08:21:01.964Z,42.03
2024-03-05T08:23:28.754Z,51.90
2024-03-05T08:26:02.046Z,39.45
2024-03-05T08:28:29.575Z,40.22
2024-03-05T08:30:56.367Z,44.08
2024-03-05T08:33:30.996Z,41.00
2024-03-05T08:35:57.759Z,44.10
2024-03-05T08:38:31.972Z,39.88
2024-03-05T08:41:00.170Z,34.60
2024-03-05T08:43:34.014Z,36.53
2024-03-05T08:46:00.907Z,35.58
2024-03-05T08:48:36.062Z,31.38
2024-03-05T08:51:09.100Z,33.58
2024-03-05T08:53:35.823Z,32.08
2024-03-05T08:56:05.244Z,38.65
2024-03-05T08:58:40.084Z,30.35
2024-03-05T09:01:14.624Z,32.45
2024-03-05T09:03:41.568Z,42.67
2024-03-05T09:06:08.311Z,55.80
2024-03-05T09:08:42.073Z,50.83
2024-03-05T09:11:15.629Z,46.35
2024-03-05T09:13:54.131Z,45.63
2024-03-05T09:16:20.949Z,42.75
2024-03-05T09:18:54.060Z,49.00
2024-03-05T09:21:27.136Z,33.22
2024-03-05T09:23:53.982Z,35.88
2024-03-05T09:26:20.824Z,41.88
2024-03-05T09:28:54.105Z,32.17
2024-03-05T09:31:20.937Z,29.80
2024-03-05T09:33:54.132Z,35.03
2024-03-05T09:36:20.884Z,36.38
2024-03-05T09:38:54.094Z,35.47
2024-03-05T09:41:21.176Z,30.73
2024-03-05T09:43:57.646Z,41.30
2024-03-05T09:46:26.073Z,43.20
2024-03-05T09:49:10.848Z,41.55
2024-03-05T09:51:42.615Z,39.35
2024-03-05T09:54:20.105Z,39.28
2024-03-05T09:56:57.133Z,40.08
2024-03-05T09:59:24.995Z,42.13
2024-03-05T10:01:58.172Z,39.03
2024-03-05T10:04:27.992Z,46.85
2024-03-05T10:07:01.159Z,48.90
2024-03-05T10:09:28.444Z,43.15
2024-03-05T10:11:55.414Z,42.75
2024-03-05T10:14:30.163Z,44.65
2024-03-05T10:17:08.222Z,46.75
2024-03-05T10:19:52.265Z,46.08
2024-03-05T10:22:25.192Z,40.83
2024-03-05T10:24:58.170Z,38.42
2024-03-05T10:27:30.781Z,44.58
2024-03-05T10:30:04.260Z,36.33
2024-03-05T10:32:31.859Z,45.72
2024-03-05T10:35:07.225Z,41.35
2024-03-05T10:37:34.695Z,36.03
2024-03-05T10:40:15.250Z,43.88
2024-03-05T10:42:43.396Z,37.70
2024-03-05T10:45:17.274Z,40.33
2024-03-05T10:47:45.955Z,35.58
2024-03-05T10:50:14.559Z,37.03
2024-03-05T10:52:50.360Z,39.45
2024-03-05T10:55:22.715Z,34.97
2024-03-05T11:00:44.855Z,30.17
2024-03-05T11:03:20.230Z,27.60
2024-03-05T11:05:57.748Z,26.73
2024-03-05T11:08:34.273Z,28.38
2024-03-05T11:11:07.615Z,30.38
2024-03-05T11:13:43.339Z,43.67
2024-03-05T11:16:10.507Z,31.52
2024-03-05T11:18:39.151Z,40.50
2024-03-05T11:21:16.352Z,36.35
2024-03-05T11:24:08.276Z,37.83
2024-03-05T11:26:35.767Z,34.25
2024-03-05T11:29:02.640Z,36.95
2024-03-05T11:31:38.793Z,37.00
2024-03-05T11:34:22.382Z,45.05
2024-03-05T11:37:11.264Z,39.97
2024-03-05T11:39:50.268Z,42.53
2024-03-05T11:42:20.843Z,43.13
2024-03-05T11:44:57.342Z,37.30
2024-03-05T11:47:24.662Z,36.75
2024-03-05T11:49:58.600Z,37.08
2024-03-05T11:52:28.093Z,35.55
2024-03-05T11:55:13.367Z,38.22
2024-03-05T11:57:41.085Z,43.38
2024-03-05T12:00:25.370Z,44.75
2024-03-05T12:03:06.824Z,37.88
2024-03-05T12:05:34.028Z,35.97
2024-03-05T12:08:08.531Z,36.50
2024-03-05T12:10:49.559Z,32.35
2024-03-05T12:13:20.147Z,35.65
2024-03-05T12:15:53.325Z,32.30
2024-03-05T12:18:20.110Z,29.33
2024-03-05T12:20:53.706Z,28.00
2024-03-05T12:23:40.486Z,27.17
2024-03-05T12:26:14.356Z,24.42
2024-03-05T12:28:41.929Z,25.35
2024-03-05T12:31:16.374Z,23.27
2024-03-05T12:33:50.413Z,28.45
2024-03-05T12:36:17.683Z,25.92
2024-03-05T12:38:51.441Z,22.63
2024-03-05T12:41:21.588Z,24.48
2024-03-05T12:43:59.414Z,22.42
2024-03-05T12:46:26.336Z,26.23
2024-03-05T12:48:58.765Z,29.80
2024-03-05T12:51:33.382Z,30.33
2024-03-05T12:54:11.716Z,28.63
2024-03-05T12:56:51.704Z,28.95
2024-03-05T12:59:26.408Z,31.90
2024-03-05T13:02:04.572Z,27.90
2024-03-05T13:04:31.620Z,28.80
2024-03-05T13:07:05.799Z,31.42
2024-03-05T13:09:32.806Z,26.10
2024-03-05T13:12:06.465Z,21.98
2024-03-05T13:14:33.291Z,32.50
2024-03-05T13:17:06.503Z,24.55
2024-03-05T13:19:33.618Z,23.00
2024-03-05T13:22:07.444Z,21.15
2024-03-05T13:24:35.305Z,20.38
2024-03-05T13:27:08.580Z,25.25
2024-03-05T13:29:36.980Z,25.35
2024-03-05T13:32:10.551Z,26.05
2024-03-05T13:34:43.462Z,25.77
2024-03-05T13:37:16.464Z,25.02
2024-03-05T13:39:53.480Z,25.13
2024-03-05T13:42:20.460Z,23.48
2024-03-05T13:44:53.483Z,28.88
2024-03-05T13:47:21.627Z,23.60
2024-03-05T13:49:49.032Z,21.98
2024-03-05T13:52:22.646Z,22.50
2024-03-05T13:54:49.468Z,27.30
2024-03-05T13:57:24.483Z,26.20
2024-03-05T13:59:51.225Z,26.00
2024-03-05T14:02:24.557Z,25.50
2024-03-05T14:04:51.761Z,30.25
2024-03-05T14:07:25.539Z,28.65
2024-03-05T14:10:00.541Z,27.10
2024-03-05T14:12:36.836Z,27.83
2024-03-05T14:15:16.580Z,25.38
2024-03-05T14:17:44.317Z,29.38
2024-03-05T14:20:18.537Z,25.85
2024-03-05T14:22:47.389Z,22.77
2024-03-05T14:25:14.471Z,26.23
2024-03-05T14:27:49.344Z,22.88
2024-03-05T14:30:19.459Z,24.73
2024-03-05T14:32:46.774Z,23.42
2024-03-05T14:35:20.556Z,22.27
2024-03-05T14:37:54.866Z,20.02
2024-03-05T14:40:28.655Z,22.23
2024-03-05T14:43:01.569Z,24.08
2024-03-05T14:45:28.752Z,21.15
2024-03-05T14:47:55.958Z,19.20
2024-03-05T14:50:30.595Z,23.33
2024-03-05T14:52:57.506Z,23.33
2024-03-05T14:55:26.628Z,21.77
2024-03-05T14:58:01.998Z,21.77
2024-03-05T15:00:35.597Z,17.08
2024-03-05T15:03:02.412Z,23.88
2024-03-05T15:05:30.541Z,20.52
2024-03-05T15:08:03.819Z,18.15
2024-03-05T15:10:32.203Z,18.45
2024-03-05T15:12:59.226Z,17.75
2024-03-05T15:15:32.656Z,17.27
2024-03-05T15:18:01.949Z,15.32
2024-03-05T15:20:35.633Z,17.20
2024-03-05T15:23:02.615Z,17.75
2024-03-05T15:25:32.164Z,15.20
2024-03-05T15:28:05.649Z,16.35
2024-03-05T15:30:40.664Z,14.27
2024-03-05T15:33:10.436Z,15.07
2024-03-05T15:35:50.659Z,15.00
2024-03-05T15:38:24.818Z,13.63
2024-03-05T15:40:51.669Z,14.52
2024-03-05T15:43:18.579Z,14.00
2024-03-05T15:45:51.828Z,15.85
2024-03-05T15:48:20.350Z,16.95
2024-03-05T15:50:53.672Z,16.65
2024-03-05T15:53:25.794Z,13.98
2024-03-05T15:56:08.884Z,14.45
2024-03-05T15:58:50.742Z,12.95
2024-03-05T16:01:17.850Z,16.30
2024-03-05T16:03:57.564Z,13.73
2024-03-05T16:06:37.727Z,15.95
2024-03-05T16:09:10.715Z,13.60
2024-03-05T16:11:44.768Z,13.40
2024-03-05T16:14:17.703Z,16.45
2024-03-05T16:16:45.208Z,14.20
2024-03-05T16:19:18.707Z,12.73
2024-03-05T16:21:47.337Z,14.02
2024-03-05T16:24:21.219Z,14.75
2024-03-05T16:26:56.731Z,11.77
2024-03-05T16:29:29.755Z,12.88
2024-03-05T16:32:03.769Z,13.18
2024-03-05T16:34:36.774Z,10.80
2024-03-05T16:37:11.905Z,12.35
2024-03-05T16:39:46.837Z,10.48
2024-03-05T16:42:13.633Z,12.80
2024-03-05T16:44:46.847Z,9.27
2024-03-05T16:47:13.687Z,9.68
2024-03-05T16:49:47.782Z,8.45
2024-03-05T16:52:14.616Z,7.90
2024-03-05T16:54:47.854Z,8.73
2024-03-05T16:57:15.095Z,7.30
2024-03-05T16:59:48.766Z,7.45
2024-03-05T17:02:18.123Z,5.65
2024-03-05T17:04:52.048Z,6.07
2024-03-05T17:07:18.873Z,6.22
2024-03-05T17:09:46.551Z,6.40
2024-03-05T17:12:20.784Z,7.78
2024-03-05T17:14:48.449Z,6.28
2024-03-05T17:17:21.816Z,6.65
2024-03-05T17:19:48.685Z,5.30
2024-03-05T17:22:21.907Z,5.18
2024-03-05T17:24:50.144Z,5.60
2024-03-05T17:27:23.839Z,5.55
2024-03-05T17:29:50.641Z,5.07
2024-03-05T17:32:23.901Z,7.10
2024-03-05T17:34:50.699Z,6.05
2024-03-05T17:37:24.069Z,6.18
2024-03-05T17:39:57.967Z,6.07
2024-03-05T17:42:24.757Z,5.30
2024-03-05T17:44:51.547Z,6.32
2024-03-05T17:47:26.919Z,7.00
2024-03-05T17:49:55.863Z,8.38
2024-03-05T17:52:34.991Z,6.85
2024-03-05T17:55:16.184Z,6.00
2024-03-05T17:57:55.957Z,7.72
2024-03-05T18:00:22.781Z,6.15
2024-03-05T18:03:12.558Z,6.15
2024-03-05T18:05:47.269Z,6.55
2024-03-05T18:08:14.258Z,6.57
2024-03-05T18:10:41.860Z,6.47
2024-03-05T18:13:17.038Z,5.22
2024-03-05T18:15:52.909Z,5.63
2024-03-05T18:18:25.996Z,6.68
2024-03-05T18:20:52.799Z,6.38
2024-03-05T18:23:19.664Z,5.78
2024-03-05T18:25:53.938Z,5.97
2024-03-05T18:28:23.061Z,5.93
2024-03-05T18:30:56.926Z,5.32
2024-03-05T18:33:23.840Z,5.82
2024-03-05T18:35:50.871Z,5.50
2024-03-05T18:38:29.343Z,6.18
2024-03-05T18:40:59.962Z,6.05
2024-03-05T18:43:36.108Z,4.75
2024-03-05T18:46:10.954Z,7.18
2024-03-05T18:48:37.783Z,6.55
2024-03-05T18:51:12.026Z,10.27
2024-03-05T18:53:43.612Z,8.20
2024-03-05T18:56:24.000Z,7.95
2024-03-05T18:58:50.791Z,8.02
2024-03-05T19:01:17.695Z,7.90
2024-03-05T19:03:52.828Z,6.93
2024-03-05T19:06:31.011Z,7.28
2024-03-05T19:08:59.289Z,6.97
2024-03-05T19:11:33.185Z,8.40
2024-03-05T19:14:00.543Z,7.90
2024-03-05T19:16:35.041Z,7.53
2024-03-05T19:19:11.053Z,7.55
2024-03-05T19:21:44.982Z,7.05
2024-03-05T19:24:18.113Z,7.93
2024-03-05T19:26:47.018Z,8.00
2024-03-05T19:29:13.953Z,10.38
2024-03-05T19:31:50.153Z,7.45
2024-03-05T19:34:23.096Z,7.70
2024-03-05T19:36:50.645Z,9.95
2024-03-05T19:39:17.437Z,10.75
2024-03-05T19:41:51.082Z,8.35
2024-03-05T19:44:18.111Z,8.43
2024-03-05T19:46:52.121Z,7.88
2024-03-05T19:49:20.595Z,6.57
2024-03-05T19:51:59.112Z,7.93
2024-03-05T19:54:29.094Z,6.50
2024-03-05T19:57:04.227Z,8.70
2024-03-05T19:59:37.110Z,8.95
2024-03-05T20:02:03.908Z,12.63
2024-03-05T20:04:37.163Z,7.78
2024-03-05T20:07:11.080Z,8.75
2024-03-05T20:09:38.314Z,8.90
2024-03-05T20:12:12.238Z,9.23
2024-03-05T20:14:39.108Z,7.20
2024-03-05T20:17:15.188Z,7.50
2024-03-05T20:19:43.555Z,10.40
2024-03-05T20:22:18.197Z,8.77
2024-03-05T20:24:51.095Z,8.52
2024-03-05T20:27:17.855Z,7.70
2024-03-05T20:29:51.180Z,7.63
2024-03-05T20:32:19.704Z,9.30
2024-03-05T20:34:49.599Z,8.35
2024-03-05T20:37:23.173Z,9.55
2024-03-05T20:39:59.187Z,8.07
2024-03-05T20:42:32.172Z,8.25
2024-03-05T20:44:58.953Z,7.18
2024-03-05T20:47:25.822Z,6.07
2024-03-05T20:49:59.155Z,8.10
2024-03-05T20:52:26.133Z,7.35
2024-03-05T20:54:59.172Z,7.90
2024-03-05T20:57:32.211Z,7.05
2024-03-05T21:00:13.610Z,9.05
2024-03-05T21:02:41.448Z,8.37
2024-03-05T21:05:16.661Z,7.60
2024-03-05T21:07:52.280Z,8.30
2024-03-05T21:10:26.174Z,8.88
2024-03-05T21:12:59.211Z,9.70
2024-03-05T21:15:26.308Z,8.38
2024-03-05T21:18:00.300Z,8.73
2024-03-05T21:20:33.185Z,7.65
2024-03-05T21:23:00.115Z,7.50
2024-03-05T21:25:44.222Z,8.35
2024-03-05T21:28:24.223Z,8.85
2024-03-05T21:30:57.211Z,9.32
2024-03-05T21:33:24.294Z,12.07
2024-03-05T21:35:58.270Z,10.02
2024-03-05T21:38:31.288Z,10.35
2024-03-05T21:40:58.920Z,8.35
2024-03-05T21:43:32.251Z,10.40
2024-03-05T21:45:59.066Z,11.63
2024-03-05T21:48:25.835Z,12.93
2024-03-05T21:51:09.853Z,11.48
2024-03-05T21:53:46.297Z,11.20
2024-03-05T21:56:19.373Z,8.73
2024-03-05T21:58:53.402Z,9.02
2024-03-05T22:01:28.314Z,9.38
2024-03-05T22:03:55.086Z,8.50
2024-03-05T22:06:28.336Z,7.45
2024-03-05T22:09:02.471Z,12.18
2024-03-05T22:11:35.307Z,9.30
2024-03-05T22:14:08.390Z,12.02
2024-03-05T22:16:41.855Z,9.93
2024-03-05T22:19:16.261Z,12.75
2024-03-05T22:21:49.423Z,13.63
2024-03-05T22:24:16.817Z,11.57
2024-03-05T22:26:54.304Z,12.98
2024-03-05T22:29:21.063Z,15.30
2024-03-05T22:31:54.329Z,11.52
2024-03-05T22:34:21.206Z,12.23
2024-03-05T22:36:54.350Z,15.75
2024-03-05T22:39:28.321Z,14.27
2024-03-05T22:41:56.153Z,14.13
2024-03-05T22:44:31.309Z,14.30
2024-03-05T22:46:58.356Z,15.02
2024-03-05T22:49:31.327Z,16.23
2024-03-05T22:51:58.204Z,20.00
2024-03-05T22:54:31.371Z,16.40
2024-03-05T22:56:58.155Z,17.88
2024-03-05T22:59:31.399Z,16.10
2024-03-05T23:02:04.392Z,14.98
2024-03-05T23:04:38.539Z,16.40
2024-03-05T23:07:06.835Z,17.02
2024-03-05T23:09:42.406Z,15.55
2024-03-05T23:12:15.633Z,15.00
2024-03-05T23:14:49.396Z,15.48
2024-03-05T23:17:24.364Z,15.32
2024-03-05T23:19:57.406Z,14.90
2024-03-05T23:22:24.213Z,16.13
2024-03-05T23:24:50.967Z,19.17
2024-03-05T23:27:24.395Z,17.30
2024-03-05T23:29:52.555Z,19.52
2024-03-05T23:32:26.466Z,17.23
2024-03-05T23:34:55.360Z,18.60
2024-03-05T23:37:30.462Z,18.23
2024-03-05T23:39:58.151Z,16.70
2024-03-05T23:42:25.690Z,19.73
2024-03-05T23:45:00.509Z,21.17
2024-03-05T23:47:27.912Z,16.88
2024-03-05T23:49:54.712Z,20.35
2024-03-05T23:52:28.498Z,20.73
2024-03-05T23:54:58.067Z,19.58
2024-03-05T23:57:28.557Z,18.50
